createdAt,value
2019-03-23T00:02:14.913Z,100962.04
2019-03-23T00:04:45.952Z,100965.72
2019-03-23T00:07:17.611Z,100970.61
2019-03-23T00:09:48.895Z,100959.20
2019-03-23T00:12:20.004Z,100961.38
2019-03-23T00:14:51.566Z,100964.20
2019-03-23T00:17:22.706Z,100952.72
2019-03-23T00:19:55.795Z,100956.94
2019-03-23T00:22:27.926Z,100956.47
2019-03-23T00:24:59.161Z,100947.16
2019-03-23T00:27:30.353Z,100953.95
2019-03-23T00:30:01.370Z,100946.30
2019-03-23T00:32:32.572Z,100944.13
2019-03-23T00:35:05.036Z,100799.97
2019-03-23T00:37:36.341Z,100941.22
2019-03-23T00:40:08.740Z,100938.66
2019-03-23T00:42:48.093Z,100935.83
2019-03-23T00:45:19.437Z,100925.45
2019-03-23T00:47:50.622Z,100925.10
2019-03-23T00:50:21.759Z,100927.63
2019-03-23T00:52:52.968Z,100920.56
2019-03-23T00:55:25.912Z,100919.83
2019-03-23T00:57:57.054Z,100920.56
2019-03-23T01:00:28.038Z,100917.93
2019-03-23T01:02:59.200Z,100913.78
2019-03-23T01:05:30.419Z,100907.76
2019-03-23T01:08:01.570Z,100914.36
2019-03-23T01:10:33.330Z,100912.84
2019-03-23T01:13:04.548Z,100907.09
2019-03-23T01:15:35.726Z,100900.58
2019-03-23T01:18:09.121Z,100903.70
2019-03-23T01:20:49.551Z,100897.02
2019-03-23T01:23:16.521Z,100899.85
2019-03-23T01:25:47.781Z,100898.03
2019-03-23T01:28:19.350Z,100901.34
2019-03-23T01:30:50.521Z,100891.27
2019-03-23T01:33:21.722Z,100892.20
2019-03-23T01:35:53.300Z,100895.23
2019-03-23T01:38:24.318Z,100892.31
2019-03-23T01:40:55.711Z,100898.72
2019-03-23T01:43:27.328Z,100889.86
2019-03-23T01:45:58.473Z,100891.91
2019-03-23T01:48:30.024Z,100886.65
2019-03-23T01:51:02.005Z,100887.22
2019-03-23T01:53:33.222Z,100887.11
2019-03-23T01:56:04.465Z,100893.05
2019-03-23T01:58:35.564Z,100895.70
2019-03-23T02:01:07.611Z,100893.45
2019-03-23T02:03:38.753Z,100895.88
2019-03-23T02:06:10.826Z,100890.03
2019-03-23T02:08:41.927Z,100896.34
2019-03-23T02:11:13.377Z,100888.71
2019-03-23T02:13:44.760Z,100887.39
2019-03-23T02:16:15.706Z,100886.27
2019-03-23T02:18:46.739Z,100887.03
2019-03-23T02:21:19.476Z,100878.34
2019-03-23T02:23:50.620Z,100874.39
2019-03-23T02:26:21.785Z,100873.84
2019-03-23T02:28:57.873Z,100875.91
2019-03-23T02:31:30.108Z,100875.82
2019-03-23T02:34:01.249Z,100900.77
2019-03-23T02:36:32.401Z,100889.09
2019-03-23T02:39:04.599Z,100874.88
2019-03-23T02:41:36.826Z,100881.17
2019-03-23T02:44:07.977Z,100882.14
2019-03-23T02:46:39.219Z,100875.82
2019-03-23T02:49:10.627Z,100872.70
2019-03-23T02:51:41.881Z,100874.41
2019-03-23T02:54:13.362Z,100869.77
2019-03-23T02:56:44.350Z,100864.70
2019-03-23T02:59:15.540Z,100871.19
2019-03-23T03:01:46.745Z,100864.50
2019-03-23T03:04:17.732Z,100868.55
2019-03-23T03:06:48.837Z,100873.44
2019-03-23T03:09:19.928Z,100869.02
2019-03-23T03:11:51.610Z,100865.52
2019-03-23T03:14:22.680Z,100868.92
2019-03-23T03:16:54.574Z,100870.44
2019-03-23T03:19:25.523Z,100871.48
2019-03-23T03:21:58.059Z,100858.39
2019-03-23T03:24:29.155Z,100872.05
2019-03-23T03:27:00.131Z,100871.74
2019-03-23T03:29:31.497Z,100867.98
2019-03-23T03:32:02.771Z,100861.58
2019-03-23T03:34:35.548Z,100879.66
2019-03-23T03:37:06.544Z,100870.07
2019-03-23T03:39:37.477Z,100866.84
2019-03-23T03:42:09.570Z,100867.62
2019-03-23T03:44:41.255Z,100876.07
2019-03-23T03:47:12.468Z,100874.94
2019-03-23T03:49:44.366Z,100881.70
2019-03-23T03:52:15.654Z,100887.95
2019-03-23T03:54:47.062Z,100894.72
2019-03-23T03:57:19.320Z,100896.03
2019-03-23T03:59:50.956Z,100896.11
2019-03-23T04:02:22.294Z,100908.62
2019-03-23T04:04:54.605Z,100902.03
2019-03-23T04:07:28.202Z,100897.44
2019-03-23T04:09:59.036Z,100918.70
2019-03-23T04:12:30.021Z,100912.65
2019-03-23T04:15:01.271Z,100924.52
2019-03-23T04:17:32.371Z,100924.52
2019-03-23T04:20:05.388Z,100930.06
2019-03-23T04:22:38.033Z,100939.11
2019-03-23T04:25:10.637Z,100937.25
2019-03-23T04:27:41.747Z,100935.91
2019-03-23T04:30:12.907Z,100942.14
2019-03-23T04:32:45.172Z,100942.06
2019-03-23T04:35:16.514Z,100947.52
2019-03-23T04:37:47.865Z,100960.02
2019-03-23T04:40:18.923Z,100957.20
2019-03-23T04:42:50.022Z,100959.27
2019-03-23T04:45:21.505Z,100963.80
2019-03-23T04:47:53.880Z,100971.52
2019-03-23T04:50:24.961Z,100964.58
2019-03-23T04:52:56.161Z,100976.80
2019-03-23T04:55:27.824Z,100976.98
2019-03-23T04:57:59.667Z,100977.76
2019-03-23T05:00:30.862Z,100979.08
2019-03-23T05:03:02.076Z,100980.89
2019-03-23T05:05:33.632Z,100986.27
2019-03-23T05:08:05.177Z,100988.91
2019-03-23T05:10:36.461Z,100982.13
2019-03-23T05:13:07.574Z,100984.33
2019-03-23T05:15:39.775Z,100976.31
2019-03-23T05:18:10.734Z,100982.34
2019-03-23T05:20:42.555Z,100995.31
2019-03-23T05:23:15.534Z,100983.66
2019-03-23T05:25:46.883Z,100989.08
2019-03-23T05:28:19.004Z,100990.64
2019-03-23T05:30:50.323Z,100987.05
2019-03-23T05:33:21.369Z,100996.27
2019-03-23T05:35:52.380Z,100999.30
2019-03-23T05:38:23.566Z,100988.68
2019-03-23T05:41:01.364Z,100989.53
2019-03-23T05:43:32.467Z,100989.91
2019-03-23T05:46:05.152Z,101004.60
2019-03-23T05:48:36.210Z,100998.37
2019-03-23T05:51:08.582Z,100998.19
2019-03-23T05:53:39.639Z,101008.95
2019-03-23T05:56:11.969Z,101005.59
2019-03-23T05:58:43.074Z,100999.18
2019-03-23T06:01:15.812Z,101003.90
2019-03-23T06:03:46.785Z,101007.00
2019-03-23T06:06:19.800Z,101009.56
2019-03-23T06:08:55.215Z,101004.27
2019-03-23T06:11:24.201Z,101008.61
2019-03-23T06:14:00.211Z,101015.95
2019-03-23T06:16:31.488Z,101014.84
2019-03-23T06:19:02.471Z,101008.22
2019-03-23T06:21:33.513Z,101002.20
2019-03-23T06:24:06.232Z,101003.21
2019-03-23T06:26:38.561Z,101004.66
2019-03-23T06:29:09.685Z,100996.93
2019-03-23T06:31:40.816Z,101006.23
2019-03-23T06:34:11.899Z,101000.87
2019-03-23T06:36:42.909Z,100997.23
2019-03-23T06:39:15.261Z,100995.70
2019-03-23T06:41:46.640Z,101010.58
2019-03-23T06:44:18.482Z,101006.63
2019-03-23T06:46:49.541Z,101007.80
2019-03-23T06:49:21.162Z,100997.30
2019-03-23T06:51:52.180Z,101006.48
2019-03-23T06:54:23.283Z,100998.16
2019-03-23T06:56:54.308Z,101005.84
2019-03-23T06:59:25.247Z,101003.89
2019-03-23T07:01:56.504Z,101011.95
2019-03-23T07:04:27.532Z,101009.91
2019-03-23T07:06:58.612Z,101004.99
2019-03-23T07:09:29.840Z,101012.97
2019-03-23T07:12:06.139Z,101010.70
2019-03-23T07:14:37.140Z,101005.26
2019-03-23T07:17:08.354Z,101004.94
2019-03-23T07:19:40.040Z,100995.77
2019-03-23T07:22:11.981Z,101003.88
2019-03-23T07:24:46.824Z,101004.86
2019-03-23T07:27:22.692Z,101001.42
2019-03-23T07:29:53.731Z,101015.39
2019-03-23T07:32:24.874Z,101005.42
2019-03-23T07:34:57.085Z,101010.92
2019-03-23T07:37:28.289Z,101001.42
2019-03-23T07:39:59.415Z,101004.78
2019-03-23T07:42:30.601Z,101005.59
2019-03-23T07:45:01.592Z,101003.47
2019-03-23T07:47:32.689Z,101002.43
2019-03-23T07:50:07.915Z,100993.64
2019-03-23T07:52:39.692Z,100997.71
2019-03-23T07:55:15.595Z,100987.92
2019-03-23T07:57:47.729Z,100990.52
2019-03-23T08:00:25.507Z,100987.47
2019-03-23T08:02:56.752Z,100977.44
2019-03-23T08:05:27.695Z,101006.34
2019-03-23T08:07:58.939Z,100996.17
2019-03-23T08:10:33.118Z,101005.67
2019-03-23T08:13:06.746Z,101018.98
2019-03-23T08:15:37.993Z,101009.92
2019-03-23T08:18:09.601Z,101012.89
2019-03-23T08:20:40.827Z,101010.83
2019-03-23T08:23:12.287Z,101010.41
2019-03-23T08:25:46.367Z,101026.36
2019-03-23T08:28:19.700Z,101010.86
2019-03-23T08:30:50.871Z,101019.58
2019-03-23T08:33:22.061Z,101016.55
2019-03-23T08:35:53.742Z,101013.17
2019-03-23T08:38:25.244Z,101003.38
2019-03-23T08:40:56.206Z,101005.67
2019-03-23T08:43:27.284Z,101011.14
2019-03-23T08:46:00.228Z,101011.84
2019-03-23T08:48:31.346Z,101013.67
2019-03-23T08:51:12.787Z,101020.30
2019-03-23T08:53:43.849Z,101011.30
2019-03-23T08:56:14.872Z,101013.83
2019-03-23T08:58:45.932Z,101011.96
2019-03-23T09:01:16.960Z,101011.91
2019-03-23T09:03:52.383Z,101005.29
2019-03-23T09:06:21.265Z,101014.28
2019-03-23T09:08:52.353Z,101005.34
2019-03-23T09:11:24.454Z,101015.84
2019-03-23T09:13:55.461Z,101004.34
2019-03-23T09:16:26.643Z,101008.25
2019-03-23T09:18:57.826Z,101021.20
2019-03-23T09:21:29.133Z,101004.91
2019-03-23T09:24:00.307Z,101006.34
2019-03-23T09:26:33.110Z,101016.73
2019-03-23T09:29:04.093Z,101010.70
2019-03-23T09:31:35.271Z,101003.09
2019-03-23T09:34:06.417Z,100999.81
2019-03-23T09:36:38.597Z,100994.14
2019-03-23T09:39:09.765Z,100996.26
2019-03-23T09:41:40.789Z,100988.71
2019-03-23T09:44:12.847Z,101000.23
2019-03-23T09:46:43.980Z,101002.41
2019-03-23T09:49:15.234Z,101007.13
2019-03-23T09:51:46.336Z,101004.97
2019-03-23T09:54:17.631Z,100996.13
2019-03-23T09:56:49.700Z,101000.83
2019-03-23T09:59:20.681Z,101008.61
2019-03-23T10:01:52.644Z,101006.13
2019-03-23T10:04:23.753Z,101002.91
2019-03-23T10:06:54.628Z,101007.52
2019-03-23T10:09:25.635Z,101005.84
2019-03-23T10:11:59.095Z,101005.75
2019-03-23T10:14:30.634Z,101014.88
2019-03-23T10:17:01.756Z,101007.79
2019-03-23T10:19:32.824Z,101011.62
2019-03-23T10:22:04.042Z,101013.13
2019-03-23T10:24:35.073Z,101022.42
2019-03-23T10:27:07.825Z,101014.66
2019-03-23T10:29:38.833Z,101018.86
2019-03-23T10:32:09.830Z,101006.72
2019-03-23T10:34:41.642Z,101000.83
2019-03-23T10:37:12.700Z,101013.69
2019-03-23T10:39:43.877Z,101022.39
2019-03-23T10:42:16.274Z,101014.83
2019-03-23T10:44:49.583Z,101009.31
2019-03-23T10:47:23.564Z,101015.66
2019-03-23T10:49:56.870Z,101010.77
2019-03-23T10:52:29.252Z,101015.28
2019-03-23T10:55:01.777Z,101007.60
2019-03-23T10:57:32.921Z,101019.19
2019-03-23T11:00:11.127Z,101018.52
2019-03-23T11:02:42.292Z,101005.48
2019-03-23T11:05:13.442Z,101007.27
2019-03-23T11:07:44.968Z,101021.74
2019-03-23T11:10:18.216Z,101019.70
2019-03-23T11:12:49.326Z,101020.67
2019-03-23T11:15:22.255Z,101028.16
2019-03-23T11:17:53.265Z,101014.31
2019-03-23T11:20:24.230Z,101021.81
2019-03-23T11:22:57.668Z,101019.14
2019-03-23T11:25:28.805Z,101019.20
2019-03-23T11:28:05.721Z,101019.20
2019-03-23T11:30:37.647Z,101024.16
2019-03-23T11:33:09.322Z,101026.23
2019-03-23T11:35:40.390Z,101028.16
2019-03-23T11:38:11.794Z,101029.48
2019-03-23T11:40:52.188Z,101037.27
2019-03-23T11:43:16.073Z,101039.63
2019-03-23T11:45:47.320Z,101045.57
2019-03-23T11:48:18.507Z,101036.84
2019-03-23T11:50:49.610Z,101037.41
2019-03-23T11:53:20.974Z,101043.08
2019-03-23T11:55:52.003Z,101038.29
2019-03-23T11:58:23.228Z,101049.82
2019-03-23T12:00:54.510Z,101035.04
2019-03-23T12:03:25.736Z,101049.52
2019-03-23T12:05:57.478Z,101038.52
2019-03-23T12:08:28.494Z,101046.00
2019-03-23T12:11:03.119Z,101044.53
2019-03-23T12:13:34.055Z,101052.64
2019-03-23T12:16:07.214Z,101060.89
2019-03-23T12:18:41.605Z,101056.66
2019-03-23T12:21:12.930Z,101059.27
2019-03-23T12:23:44.208Z,101058.03
2019-03-23T12:26:23.847Z,101052.62
2019-03-23T12:28:57.760Z,101058.47
2019-03-23T12:31:28.876Z,101060.09
2019-03-23T12:34:00.098Z,101059.88
2019-03-23T12:36:32.208Z,101060.52
2019-03-23T12:39:05.534Z,101065.39
2019-03-23T12:41:38.040Z,101069.92
2019-03-23T12:44:09.542Z,101057.28
2019-03-23T12:46:48.283Z,101056.59
2019-03-23T12:49:15.641Z,101065.94
2019-03-23T12:51:46.716Z,101070.97
2019-03-23T12:54:17.781Z,101074.13
2019-03-23T12:59:10.772Z,101079.10
2019-03-23T13:01:43.062Z,101067.94
2019-03-23T13:04:16.215Z,101066.42
2019-03-23T13:06:47.798Z,101068.64
2019-03-23T13:09:19.910Z,101068.30
2019-03-23T13:11:50.866Z,101070.52
2019-03-23T13:14:27.273Z,101072.66
2019-03-23T13:16:59.625Z,101077.53
2019-03-23T13:19:35.617Z,101075.78
2019-03-23T13:22:06.760Z,101090.67
2019-03-23T13:24:37.944Z,101086.33
2019-03-23T13:27:08.926Z,101080.81
2019-03-23T13:29:42.842Z,101084.31
2019-03-23T13:32:13.844Z,101084.47
2019-03-23T13:34:47.116Z,101095.80
2019-03-23T13:37:18.247Z,101086.01
2019-03-23T13:39:49.802Z,101086.93
2019-03-23T13:42:20.781Z,101098.55
2019-03-23T13:44:53.420Z,101091.60
2019-03-23T13:47:24.705Z,101091.98
2019-03-23T13:49:55.761Z,101098.31
2019-03-23T13:52:26.915Z,101095.88
2019-03-23T13:54:57.960Z,101096.02
2019-03-23T13:57:30.757Z,101104.02
2019-03-23T14:00:02.131Z,101106.88
2019-03-23T14:02:34.354Z,101116.97
2019-03-23T14:05:12.234Z,101110.31
2019-03-23T14:07:38.759Z,101122.69
2019-03-23T14:10:10.497Z,101127.25
2019-03-23T14:12:42.505Z,101132.77
2019-03-23T14:15:13.776Z,101122.31
2019-03-23T14:17:45.954Z,101129.19
2019-03-23T14:20:17.236Z,101130.78
2019-03-23T14:22:48.381Z,101126.03
2019-03-23T14:25:21.933Z,101133.15
2019-03-23T14:27:59.164Z,101141.23
2019-03-23T14:30:32.234Z,101140.11
2019-03-23T14:33:03.313Z,101144.00
2019-03-23T14:35:34.487Z,101144.09
2019-03-23T14:38:05.695Z,101150.35
2019-03-23T14:40:36.850Z,101155.99
2019-03-23T14:43:09.168Z,101145.06
2019-03-23T14:45:41.064Z,101153.55
2019-03-23T14:48:12.209Z,101163.08
2019-03-23T14:50:43.539Z,101157.77
2019-03-23T14:53:16.851Z,101166.98
2019-03-23T14:55:47.955Z,101169.17
2019-03-23T14:58:20.999Z,101170.88
2019-03-23T15:00:52.178Z,101169.28
2019-03-23T15:03:23.484Z,101173.80
2019-03-23T15:05:55.750Z,101174.45
2019-03-23T15:08:26.895Z,101166.84
2019-03-23T15:11:01.050Z,101178.82
2019-03-23T15:13:33.239Z,101188.20
2019-03-23T15:16:08.664Z,101177.07
2019-03-23T15:18:39.978Z,101185.75
2019-03-23T15:21:11.262Z,101186.33
2019-03-23T15:23:42.567Z,101195.40
2019-03-23T15:26:13.813Z,101189.91
2019-03-23T15:28:44.960Z,101201.81
2019-03-23T15:31:22.626Z,101195.05
2019-03-23T15:33:55.439Z,101206.55
2019-03-23T15:36:27.204Z,101208.23
2019-03-23T15:38:59.792Z,101211.19
2019-03-23T15:41:33.206Z,101210.52
2019-03-23T15:44:04.470Z,101217.52
2019-03-23T15:46:35.504Z,101217.69
2019-03-23T15:49:08.874Z,101219.31
2019-03-23T15:51:40.326Z,101228.19
2019-03-23T15:54:11.774Z,101229.80
2019-03-23T15:56:43.036Z,101230.92
2019-03-23T15:59:15.300Z,101237.26
2019-03-23T16:01:48.689Z,101233.87
2019-03-23T16:04:19.843Z,101244.16
2019-03-23T16:06:51.591Z,101256.14
2019-03-23T16:09:22.782Z,101252.83
2019-03-23T16:11:53.854Z,101247.43
2019-03-23T16:14:29.537Z,101258.58
2019-03-23T16:17:02.016Z,101264.70
2019-03-23T16:19:33.423Z,101266.95
2019-03-23T16:22:05.224Z,101267.61
2019-03-23T16:24:43.126Z,101265.80
2019-03-23T16:27:14.571Z,101273.82
2019-03-23T16:29:47.980Z,101269.03
2019-03-23T16:32:23.380Z,101224.12
2019-03-23T16:34:57.941Z,101266.75
2019-03-23T16:37:29.690Z,101265.80
2019-03-23T16:40:06.089Z,101263.93
2019-03-23T16:42:45.324Z,101269.03
2019-03-23T16:45:13.059Z,101280.82
2019-03-23T16:47:44.728Z,101271.36
2019-03-23T16:50:15.897Z,101269.22
2019-03-23T16:52:47.042Z,101283.75
2019-03-23T16:55:18.268Z,101280.84
2019-03-23T16:57:49.340Z,101285.35
2019-03-23T17:01:06.901Z,101298.67
2019-03-23T17:03:40.044Z,101290.06
2019-03-23T17:06:13.488Z,101301.39
2019-03-23T17:08:47.331Z,101304.89
2019-03-23T17:11:20.168Z,101309.23
2019-03-23T17:13:53.449Z,101311.31
2019-03-23T17:16:26.933Z,101308.06
2019-03-23T17:18:59.201Z,101307.70
2019-03-23T17:21:34.015Z,101302.61
2019-03-23T17:24:07.060Z,101303.56
2019-03-23T17:26:39.420Z,101302.61
2019-03-23T17:29:12.826Z,101313.17
2019-03-23T17:31:45.010Z,101309.03
2019-03-23T17:34:18.480Z,101302.25
2019-03-23T17:36:50.450Z,101301.21
2019-03-23T17:39:23.766Z,101297.53
2019-03-23T17:41:57.379Z,101311.38
2019-03-23T17:44:32.418Z,101304.89
2019-03-23T17:47:05.411Z,101297.03
2019-03-23T17:49:39.571Z,101306.00
2019-03-23T17:52:14.914Z,101306.75
2019-03-23T17:54:50.173Z,101305.60
2019-03-23T17:57:23.155Z,101313.53
2019-03-23T18:00:04.059Z,101296.53
2019-03-23T18:02:44.211Z,101307.39
2019-03-23T18:05:18.025Z,101314.56
2019-03-23T18:07:51.570Z,101317.38
2019-03-23T18:10:24.855Z,101322.38
2019-03-23T18:12:59.072Z,101322.38
2019-03-23T18:15:30.996Z,101320.59
2019-03-23T18:18:06.854Z,101329.66
2019-03-23T18:20:42.515Z,101328.34
2019-03-23T18:23:19.040Z,101335.98
2019-03-23T18:25:54.109Z,101334.91
2019-03-23T18:28:28.298Z,101333.52
2019-03-23T18:31:00.490Z,101338.41
2019-03-23T18:33:34.072Z,101333.59
2019-03-23T18:36:07.008Z,101333.20
2019-03-23T18:38:44.680Z,101328.59
2019-03-23T18:41:22.111Z,101328.77
2019-03-23T18:43:56.151Z,101327.16
2019-03-23T18:46:28.617Z,101329.41
2019-03-23T18:49:02.157Z,101334.80
2019-03-23T18:51:34.896Z,101333.38
2019-03-23T18:54:08.694Z,101337.83
2019-03-23T18:56:43.148Z,101344.97
2019-03-23T18:59:17.365Z,101340.64
2019-03-23T19:01:49.377Z,101335.66
2019-03-23T19:04:24.184Z,101336.69
2019-03-23T19:06:57.631Z,101335.90
2019-03-23T19:09:29.127Z,101340.21
2019-03-23T19:12:00.419Z,101340.50
2019-03-23T19:14:33.158Z,101344.68
2019-03-23T19:17:04.562Z,101344.68
2019-03-23T19:19:37.921Z,101354.09
2019-03-23T19:22:10.350Z,101350.02
2019-03-23T19:24:41.913Z,101348.98
2019-03-23T19:27:13.722Z,101352.95
2019-03-23T19:29:45.654Z,101354.55
2019-03-23T19:32:17.406Z,101352.83
2019-03-23T19:34:49.648Z,101353.05
2019-03-23T19:37:22.549Z,101347.72
2019-03-23T19:39:54.118Z,101348.36
2019-03-23T19:42:26.810Z,101350.44
2019-03-23T19:44:58.112Z,101342.69
2019-03-23T19:47:29.841Z,101344.40
2019-03-23T19:50:06.036Z,101346.58
2019-03-23T19:52:37.332Z,101353.93
2019-03-23T19:55:09.120Z,101351.63
2019-03-23T19:57:40.386Z,101348.53
2019-03-23T20:00:12.996Z,101343.18
2019-03-23T20:02:45.401Z,101352.71
2019-03-23T20:05:17.277Z,101352.42
2019-03-23T20:07:54.804Z,101350.31
2019-03-23T20:10:26.167Z,101353.74
2019-03-23T20:12:57.828Z,101357.14
2019-03-23T20:15:29.570Z,101346.52
2019-03-23T20:18:02.973Z,101350.24
2019-03-23T20:20:35.243Z,101349.28
2019-03-23T20:23:07.914Z,101348.70
2019-03-23T20:25:39.918Z,101339.86
2019-03-23T20:28:11.534Z,101344.84
2019-03-23T20:30:42.881Z,101348.02
2019-03-23T20:33:19.242Z,101345.67
2019-03-23T20:35:47.177Z,101345.48
2019-03-23T20:38:19.585Z,101342.20
2019-03-23T20:40:51.235Z,101339.17
2019-03-23T20:43:24.129Z,101333.13
2019-03-23T20:45:55.598Z,101335.20
2019-03-23T20:48:26.780Z,101333.20
2019-03-23T20:50:59.203Z,101329.34
2019-03-23T20:53:30.377Z,101338.19
2019-03-23T20:56:01.628Z,101339.85
2019-03-23T20:58:33.231Z,101332.16
2019-03-23T21:01:06.343Z,101332.69
2019-03-23T21:03:37.929Z,101326.66
2019-03-23T21:06:12.513Z,101327.58
2019-03-23T21:08:46.975Z,101339.63
2019-03-23T21:11:24.752Z,101339.27
2019-03-23T21:13:56.182Z,101333.13
2019-03-23T21:16:27.306Z,101334.98
2019-03-23T21:18:58.431Z,101336.00
2019-03-23T21:21:29.577Z,101334.49
2019-03-23T21:24:00.836Z,101329.97
2019-03-23T21:26:32.036Z,101337.59
2019-03-23T21:29:04.194Z,101335.02
2019-03-23T21:31:36.618Z,101334.66
2019-03-23T21:34:08.181Z,101341.78
2019-03-23T21:36:39.316Z,101338.09
2019-03-23T21:39:11.227Z,101343.50
2019-03-23T21:41:43.854Z,101337.80
2019-03-23T21:44:15.160Z,101329.88
2019-03-23T21:46:46.680Z,101333.18
2019-03-23T21:49:17.934Z,101327.14
2019-03-23T21:51:50.110Z,101330.70
2019-03-23T21:54:22.027Z,101324.28
2019-03-23T21:56:56.523Z,101324.94
2019-03-23T21:59:27.733Z,101325.47
2019-03-23T22:01:58.960Z,101322.47
2019-03-23T22:04:31.006Z,101320.92
2019-03-23T22:07:02.479Z,101319.93
2019-03-23T22:09:35.722Z,101323.30
2019-03-23T22:12:06.671Z,101327.11
2019-03-23T22:14:41.877Z,101324.11
2019-03-23T22:17:10.646Z,101315.27
2019-03-23T22:19:42.259Z,101324.13
2019-03-23T22:22:13.254Z,101326.31
2019-03-23T22:24:46.111Z,101326.23
2019-03-23T22:27:19.089Z,101323.00
2019-03-23T22:29:50.346Z,101330.61
2019-03-23T22:32:21.596Z,101325.34
2019-03-23T22:34:52.753Z,101331.44
2019-03-23T22:37:24.074Z,101322.63
2019-03-23T22:39:56.161Z,101327.48
2019-03-23T22:42:27.411Z,101331.05
2019-03-23T22:44:58.787Z,101327.73
2019-03-23T22:47:29.921Z,101330.73
2019-03-23T22:50:01.149Z,101329.10
2019-03-23T22:52:32.362Z,101332.25
2019-03-23T22:55:03.846Z,101333.72
2019-03-23T22:57:35.156Z,101329.77
2019-03-23T23:00:18.383Z,101328.75
2019-03-23T23:02:51.203Z,101328.28
2019-03-23T23:05:22.525Z,101334.70
2019-03-23T23:07:53.970Z,101327.11
2019-03-23T23:10:25.427Z,101326.25
2019-03-23T23:12:56.565Z,101326.19
2019-03-23T23:15:28.974Z,101327.41
2019-03-23T23:18:00.595Z,101321.28
2019-03-23T23:20:32.159Z,101326.23
2019-03-23T23:23:03.498Z,101324.06
2019-03-23T23:25:34.768Z,101327.95
2019-03-23T23:28:06.200Z,101322.43
2019-03-23T23:30:37.678Z,101321.89
2019-03-23T23:33:08.784Z,101315.23
2019-03-23T23:35:39.968Z,101311.95
2019-03-23T23:38:11.112Z,101303.57
2019-03-23T23:40:43.662Z,101295.14
2019-03-23T23:43:14.828Z,101299.77
2019-03-23T23:45:46.373Z,101292.57
2019-03-23T23:48:17.824Z,101293.34
2019-03-23T23:50:49.301Z,101297.00
2019-03-23T23:53:20.625Z,101289.51
2019-03-23T23:56:06.514Z,101286.77
2019-03-23T23:58:37.761Z,101288.77
